sensor_id;sensor_type;location;lat;lon;timestamp;P1;durP1;ratioP1;P2;durP2;ratioP2
10947;SDS011;5526;42.070;24.752;2023-01-13T00:00:12;1.90;;;1.80;;
10947;SDS011;5526;42.070;24.752;2023-01-13T00:02:42;2.75;;;2.33;;
10947;SDS011;5526;42.070;24.752;2023-01-13T00:05:09;2.30;;;2.20;;
10947;SDS011;5526;42.070;24.752;2023-01-13T00:07:37;2.22;;;2.13;;
10947;SDS011;5526;42.070;24.752;2023-01-13T00:10:06;2.50;;;2.30;;
10947;SDS011;5526;42.070;24.752;2023-01-13T00:12:34;2.28;;;2.17;;
10947;SDS011;5526;42.070;24.752;2023-01-13T00:15:05;2.47;;;2.28;;
10947;SDS011;5526;42.070;24.752;2023-01-13T00:17:33;2.60;;;2.40;;
10947;SDS011;5526;42.070;24.752;2023-01-13T00:20:02;2.58;;;2.38;;
10947;SDS011;5526;42.070;24.752;2023-01-13T00:22:31;2.58;;;2.38;;
10947;SDS011;5526;42.070;24.752;2023-01-13T00:24:59;2.35;;;2.17;;
10947;SDS011;5526;42.070;24.752;2023-01-13T00:27:28;2.42;;;2.30;;
10947;SDS011;5526;42.070;24.752;2023-01-13T00:29:56;2.97;;;2.78;;
10947;SDS011;5526;42.070;24.752;2023-01-13T00:32:23;2.78;;;2.58;;
10947;SDS011;5526;42.070;24.752;2023-01-13T00:34:50;2.45;;;2.30;;
10947;SDS011;5526;42.070;24.752;2023-01-13T00:37:19;2.10;;;1.90;;
10947;SDS011;5526;42.070;24.752;2023-01-13T00:39:46;2.20;;;2.10;;
10947;SDS011;5526;42.070;24.752;2023-01-13T00:42:14;2.15;;;2.05;;
10947;SDS011;5526;42.070;24.752;2023-01-13T00:44:58;2.78;;;2.58;;
10947;SDS011;5526;42.070;24.752;2023-01-13T00:47:25;1.92;;;1.83;;
10947;SDS011;5526;42.070;24.752;2023-01-13T00:49:53;2.53;;;2.33;;
10947;SDS011;5526;42.070;24.752;2023-01-13T00:52:21;2.05;;;1.95;;
10947;SDS011;5526;42.070;24.752;2023-01-13T00:54:49;1.92;;;1.83;;
10947;SDS011;5526;42.070;24.752;2023-01-13T00:57:16;2.55;;;2.35;;
10947;SDS011;5526;42.070;24.752;2023-01-13T00:59:43;2.70;;;2.50;;
10947;SDS011;5526;42.070;24.752;2023-01-13T01:02:12;2.80;;;2.60;;
10947;SDS011;5526;42.070;24.752;2023-01-13T01:04:39;3.60;;;3.30;;
10947;SDS011;5526;42.070;24.752;2023-01-13T01:07:07;3.78;;;3.47;;
10947;SDS011;5526;42.070;24.752;2023-01-13T01:09:35;3.55;;;3.25;;
10947;SDS011;5526;42.070;24.752;2023-01-13T01:12:03;3.72;;;3.42;;
10947;SDS011;5526;42.070;24.752;2023-01-13T01:14:31;3.13;;;2.83;;
10947;SDS011;5526;42.070;24.752;2023-01-13T01:16:58;3.75;;;3.45;;
10947;SDS011;5526;42.070;24.752;2023-01-13T01:19:25;3.65;;;3.35;;
10947;SDS011;5526;42.070;24.752;2023-01-13T01:21:53;3.10;;;2.90;;
10947;SDS011;5526;42.070;24.752;2023-01-13T01:24:20;3.40;;;3.10;;
10947;SDS011;5526;42.070;24.752;2023-01-13T01:26:49;3.10;;;2.90;;
10947;SDS011;5526;42.070;24.752;2023-01-13T01:29:16;3.08;;;2.80;;
10947;SDS011;5526;42.070;24.752;2023-01-13T01:31:43;4.50;;;4.10;;
10947;SDS011;5526;42.070;24.752;2023-01-13T01:34:11;4.60;;;4.18;;
10947;SDS011;5526;42.070;24.752;2023-01-13T01:36:38;3.80;;;3.50;;
10947;SDS011;5526;42.070;24.752;2023-01-13T01:39:05;3.88;;;3.30;;
10947;SDS011;5526;42.070;24.752;2023-01-13T01:41:33;3.78;;;3.47;;
10947;SDS011;5526;42.070;24.752;2023-01-13T01:44:04;3.13;;;2.92;;
10947;SDS011;5526;42.070;24.752;2023-01-13T01:46:53;3.00;;;2.80;;
10947;SDS011;5526;42.070;24.752;2023-01-13T01:49:22;2.95;;;2.65;;
10947;SDS011;5526;42.070;24.752;2023-01-13T01:51:55;2.97;;;2.67;;
10947;SDS011;5526;42.070;24.752;2023-01-13T01:54:27;2.47;;;2.28;;
10947;SDS011;5526;42.070;24.752;2023-01-13T01:57:01;2.40;;;2.20;;
10947;SDS011;5526;42.070;24.752;2023-01-13T01:59:30;2.33;;;2.20;;
10947;SDS011;5526;42.070;24.752;2023-01-13T02:01:58;2.63;;;2.40;;
10947;SDS011;5526;42.070;24.752;2023-01-13T02:04:27;2.33;;;2.13;;
10947;SDS011;5526;42.070;24.752;2023-01-13T02:06:58;2.15;;;2.05;;
10947;SDS011;5526;42.070;24.752;2023-01-13T02:09:27;2.00;;;1.90;;
10947;SDS011;5526;42.070;24.752;2023-01-13T02:11:54;2.58;;;2.22;;
10947;SDS011;5526;42.070;24.752;2023-01-13T02:14:40;2.33;;;2.17;;
10947;SDS011;5526;42.070;24.752;2023-01-13T02:17:14;2.10;;;1.80;;
10947;SDS011;5526;42.070;24.752;2023-01-13T02:20:04;1.80;;;1.70;;
10947;SDS011;5526;42.070;24.752;2023-01-13T02:23:06;1.60;;;1.50;;
10947;SDS011;5526;42.070;24.752;2023-01-13T02:29:39;1.85;;;1.75;;
10947;SDS011;5526;42.070;24.752;2023-01-13T02:32:38;2.10;;;1.90;;
10947;SDS011;5526;42.070;24.752;2023-01-13T02:35:13;2.10;;;1.98;;
10947;SDS011;5526;42.070;24.752;2023-01-13T02:37:46;2.17;;;2.05;;
10947;SDS011;5526;42.070;24.752;2023-01-13T02:40:16;1.92;;;1.83;;
10947;SDS011;5526;42.070;24.752;2023-01-13T02:42:49;1.98;;;1.88;;
10947;SDS011;5526;42.070;24.752;2023-01-13T02:45:43;2.38;;;2.17;;
10947;SDS011;5526;42.070;24.752;2023-01-13T02:48:14;2.13;;;2.03;;
10947;SDS011;5526;42.070;24.752;2023-01-13T02:50:47;2.30;;;2.13;;
10947;SDS011;5526;42.070;24.752;2023-01-13T02:53:20;1.90;;;1.80;;
10947;SDS011;5526;42.070;24.752;2023-01-13T02:55:52;2.30;;;2.15;;
10947;SDS011;5526;42.070;24.752;2023-01-13T02:58:23;2.10;;;2.00;;
10947;SDS011;5526;42.070;24.752;2023-01-13T03:00:55;2.00;;;1.90;;
10947;SDS011;5526;42.070;24.752;2023-01-13T03:03:23;2.53;;;2.33;;
10947;SDS011;5526;42.070;24.752;2023-01-13T03:05:51;2.22;;;2.10;;
10947;SDS011;5526;42.070;24.752;2023-01-13T03:11:12;2.20;;;2.10;;
10947;SDS011;5526;42.070;24.752;2023-01-13T03:13:44;2.00;;;1.90;;
10947;SDS011;5526;42.070;24.752;2023-01-13T03:16:29;2.28;;;2.15;;
10947;SDS011;5526;42.070;24.752;2023-01-13T03:19:11;2.20;;;2.00;;
10947;SDS011;5526;42.070;24.752;2023-01-13T03:21:51;1.83;;;1.73;;
10947;SDS011;5526;42.070;24.752;2023-01-13T03:24:24;2.17;;;2.08;;
10947;SDS011;5526;42.070;24.752;2023-01-13T03:26:57;2.35;;;2.15;;
10947;SDS011;5526;42.070;24.752;2023-01-13T03:29:30;2.15;;;2.05;;
10947;SDS011;5526;42.070;24.752;2023-01-13T03:32:03;2.10;;;2.00;;
10947;SDS011;5526;42.070;24.752;2023-01-13T03:34:37;2.05;;;1.95;;
10947;SDS011;5526;42.070;24.752;2023-01-13T03:37:10;2.17;;;2.00;;
10947;SDS011;5526;42.070;24.752;2023-01-13T03:39:42;2.13;;;2.03;;
10947;SDS011;5526;42.070;24.752;2023-01-13T03:42:13;1.88;;;1.77;;
10947;SDS011;5526;42.070;24.752;2023-01-13T03:44:45;1.90;;;1.80;;
10947;SDS011;5526;42.070;24.752;2023-01-13T03:47:18;2.47;;;2.33;;
10947;SDS011;5526;42.070;24.752;2023-01-13T03:49:51;1.80;;;1.70;;
10947;SDS011;5526;42.070;24.752;2023-01-13T03:52:23;1.70;;;1.60;;
10947;SDS011;5526;42.070;24.752;2023-01-13T03:54:56;1.60;;;1.50;;
10947;SDS011;5526;42.070;24.752;2023-01-13T03:57:28;2.53;;;1.80;;
10947;SDS011;5526;42.070;24.752;2023-01-13T04:00:00;1.60;;;1.50;;
10947;SDS011;5526;42.070;24.752;2023-01-13T04:02:37;1.60;;;1.50;;
10947;SDS011;5526;42.070;24.752;2023-01-13T04:05:11;1.98;;;1.88;;
10947;SDS011;5526;42.070;24.752;2023-01-13T04:07:40;1.70;;;1.60;;
10947;SDS011;5526;42.070;24.752;2023-01-13T04:10:18;1.75;;;1.65;;
10947;SDS011;5526;42.070;24.752;2023-01-13T04:12:52;1.65;;;1.55;;
10947;SDS011;5526;42.070;24.752;2023-01-13T04:15:28;1.60;;;1.50;;
10947;SDS011;5526;42.070;24.752;2023-01-13T04:18:09;1.83;;;1.73;;
10947;SDS011;5526;42.070;24.752;2023-01-13T04:20:38;1.77;;;1.67;;
10947;SDS011;5526;42.070;24.752;2023-01-13T04:23:07;1.33;;;1.23;;
10947;SDS011;5526;42.070;24.752;2023-01-13T04:25:34;1.60;;;1.35;;
10947;SDS011;5526;42.070;24.752;2023-01-13T04:28:02;1.40;;;1.30;;
10947;SDS011;5526;42.070;24.752;2023-01-13T04:30:30;1.10;;;1.08;;
10947;SDS011;5526;42.070;24.752;2023-01-13T04:32:57;0.90;;;0.90;;
10947;SDS011;5526;42.070;24.752;2023-01-13T04:35:26;1.02;;;1.02;;
10947;SDS011;5526;42.070;24.752;2023-01-13T04:37:53;1.08;;;1.08;;
10947;SDS011;5526;42.070;24.752;2023-01-13T04:40:20;1.98;;;1.75;;
10947;SDS011;5526;42.070;24.752;2023-01-13T04:42:47;0.93;;;0.93;;
10947;SDS011;5526;42.070;24.752;2023-01-13T04:45:15;1.40;;;1.30;;
10947;SDS011;5526;42.070;24.752;2023-01-13T04:47:42;1.90;;;1.80;;
10947;SDS011;5526;42.070;24.752;2023-01-13T04:50:10;1.30;;;1.20;;
10947;SDS011;5526;42.070;24.752;2023-01-13T04:52:38;1.10;;;1.10;;
10947;SDS011;5526;42.070;24.752;2023-01-13T04:55:06;1.30;;;1.20;;
10947;SDS011;5526;42.070;24.752;2023-01-13T04:57:35;1.30;;;1.20;;
10947;SDS011;5526;42.070;24.752;2023-01-13T05:00:03;1.23;;;1.20;;
10947;SDS011;5526;42.070;24.752;2023-01-13T05:02:31;1.80;;;1.70;;
10947;SDS011;5526;42.070;24.752;2023-01-13T05:04:59;1.58;;;1.48;;
10947;SDS011;5526;42.070;24.752;2023-01-13T05:07:26;0.90;;;0.90;;
10947;SDS011;5526;42.070;24.752;2023-01-13T05:09:55;1.38;;;1.27;;
10947;SDS011;5526;42.070;24.752;2023-01-13T05:12:22;1.20;;;1.10;;
10947;SDS011;5526;42.070;24.752;2023-01-13T05:15:08;1.63;;;1.20;;
10947;SDS011;5526;42.070;24.752;2023-01-13T05:17:54;5.38;;;3.40;;
10947;SDS011;5526;42.070;24.752;2023-01-13T05:20:21;2.60;;;2.40;;
10947;SDS011;5526;42.070;24.752;2023-01-13T05:22:49;5.15;;;4.65;;
10947;SDS011;5526;42.070;24.752;2023-01-13T05:25:36;7.95;;;5.30;;
10947;SDS011;5526;42.070;24.752;2023-01-13T05:28:05;2.83;;;2.63;;
10947;SDS011;5526;42.070;24.752;2023-01-13T05:30:35;1.90;;;1.55;;
10947;SDS011;5526;42.070;24.752;2023-01-13T05:33:06;1.00;;;1.00;;
10947;SDS011;5526;42.070;24.752;2023-01-13T05:35:34;1.35;;;1.25;;
10947;SDS011;5526;42.070;24.752;2023-01-13T05:38:03;1.25;;;1.15;;
10947;SDS011;5526;42.070;24.752;2023-01-13T05:40:30;1.38;;;1.17;;
10947;SDS011;5526;42.070;24.752;2023-01-13T05:43:17;2.25;;;2.05;;
10947;SDS011;5526;42.070;24.752;2023-01-13T05:45:46;1.38;;;1.10;;
10947;SDS011;5526;42.070;24.752;2023-01-13T05:48:15;1.63;;;1.27;;
10947;SDS011;5526;42.070;24.752;2023-01-13T05:50:43;32.80;;;16.95;;
10947;SDS011;5526;42.070;24.752;2023-01-13T05:53:11;13.63;;;7.55;;
10947;SDS011;5526;42.070;24.752;2023-01-13T05:55:38;23.55;;;14.55;;
10947;SDS011;5526;42.070;24.752;2023-01-13T05:58:06;34.05;;;20.30;;
10947;SDS011;5526;42.070;24.752;2023-01-13T06:00:35;22.17;;;14.23;;
10947;SDS011;5526;42.070;24.752;2023-01-13T06:03:03;25.33;;;15.30;;
10947;SDS011;5526;42.070;24.752;2023-01-13T06:05:31;7.43;;;6.43;;
10947;SDS011;5526;42.070;24.752;2023-01-13T06:07:59;7.57;;;6.80;;
10947;SDS011;5526;42.070;24.752;2023-01-13T06:10:28;6.07;;;5.47;;
10947;SDS011;5526;42.070;24.752;2023-01-13T06:12:55;5.68;;;3.60;;
10947;SDS011;5526;42.070;24.752;2023-01-13T06:15:23;3.45;;;3.15;;
10947;SDS011;5526;42.070;24.752;2023-01-13T06:17:52;2.88;;;2.05;;
10947;SDS011;5526;42.070;24.752;2023-01-13T06:20:20;4.32;;;2.00;;
10947;SDS011;5526;42.070;24.752;2023-01-13T06:22:48;2.17;;;2.08;;
10947;SDS011;5526;42.070;24.752;2023-01-13T06:25:18;2.17;;;1.83;;
10947;SDS011;5526;42.070;24.752;2023-01-13T06:27:50;1.73;;;1.63;;
10947;SDS011;5526;42.070;24.752;2023-01-13T06:30:18;2.25;;;2.15;;
10947;SDS011;5526;42.070;24.752;2023-01-13T06:32:47;1.35;;;1.25;;
10947;SDS011;5526;42.070;24.752;2023-01-13T06:35:19;5.90;;;4.53;;
10947;SDS011;5526;42.070;24.752;2023-01-13T06:37:49;5.88;;;4.93;;
10947;SDS011;5526;42.070;24.752;2023-01-13T06:40:19;11.30;;;7.63;;
10947;SDS011;5526;42.070;24.752;2023-01-13T06:42:47;12.13;;;7.00;;
10947;SDS011;5526;42.070;24.752;2023-01-13T06:45:32;8.82;;;6.47;;
10947;SDS011;5526;42.070;24.752;2023-01-13T06:48:00;6.70;;;4.35;;
10947;SDS011;5526;42.070;24.752;2023-01-13T06:50:29;4.30;;;3.90;;
10947;SDS011;5526;42.070;24.752;2023-01-13T06:52:56;3.50;;;2.97;;
10947;SDS011;5526;42.070;24.752;2023-01-13T06:55:24;4.03;;;3.47;;
10947;SDS011;5526;42.070;24.752;2023-01-13T06:57:51;3.00;;;2.80;;
10947;SDS011;5526;42.070;24.752;2023-01-13T07:00:20;4.47;;;3.15;;
10947;SDS011;5526;42.070;24.752;2023-01-13T07:02:49;3.72;;;3.30;;
10947;SDS011;5526;42.070;24.752;2023-01-13T07:05:16;3.30;;;3.00;;
10947;SDS011;5526;42.070;24.752;2023-01-13T07:07:46;3.40;;;3.10;;
10947;SDS011;5526;42.070;24.752;2023-01-13T07:10:15;4.32;;;3.40;;
10947;SDS011;5526;42.070;24.752;2023-01-13T07:12:46;4.40;;;3.80;;
10947;SDS011;5526;42.070;24.752;2023-01-13T07:15:32;3.15;;;2.92;;
10947;SDS011;5526;42.070;24.752;2023-01-13T07:18:00;4.20;;;3.03;;
10947;SDS011;5526;42.070;24.752;2023-01-13T07:20:28;3.28;;;3.08;;
10947;SDS011;5526;42.070;24.752;2023-01-13T07:22:57;5.30;;;3.33;;
10947;SDS011;5526;42.070;24.752;2023-01-13T07:25:24;3.90;;;3.42;;
10947;SDS011;5526;42.070;24.752;2023-01-13T07:27:52;3.97;;;3.65;;
10947;SDS011;5526;42.070;24.752;2023-01-13T07:30:19;3.60;;;3.30;;
10947;SDS011;5526;42.070;24.752;2023-01-13T07:32:46;4.70;;;4.30;;
10947;SDS011;5526;42.070;24.752;2023-01-13T07:35:13;9.55;;;6.88;;
10947;SDS011;5526;42.070;24.752;2023-01-13T07:37:46;3.95;;;3.38;;
10947;SDS011;5526;42.070;24.752;2023-01-13T07:40:16;2.60;;;2.45;;
10947;SDS011;5526;42.070;24.752;2023-01-13T07:42:43;4.10;;;2.53;;
10947;SDS011;5526;42.070;24.752;2023-01-13T07:45:28;2.67;;;2.47;;
10947;SDS011;5526;42.070;24.752;2023-01-13T07:47:55;2.60;;;2.40;;
10947;SDS011;5526;42.070;24.752;2023-01-13T07:50:22;3.67;;;2.45;;
10947;SDS011;5526;42.070;24.752;2023-01-13T07:52:50;2.70;;;2.50;;
10947;SDS011;5526;42.070;24.752;2023-01-13T07:55:19;2.65;;;2.40;;
10947;SDS011;5526;42.070;24.752;2023-01-13T07:57:46;4.30;;;2.50;;
10947;SDS011;5526;42.070;24.752;2023-01-13T08:00:14;2.53;;;2.33;;
10947;SDS011;5526;42.070;24.752;2023-01-13T08:02:42;3.00;;;2.70;;
10947;SDS011;5526;42.070;24.752;2023-01-13T08:05:09;2.92;;;2.72;;
10947;SDS011;5526;42.070;24.752;2023-01-13T08:07:38;2.47;;;2.28;;
10947;SDS011;5526;42.070;24.752;2023-01-13T08:10:06;3.40;;;3.10;;
10947;SDS011;5526;42.070;24.752;2023-01-13T08:12:35;2.88;;;2.47;;
10947;SDS011;5526;42.070;24.752;2023-01-13T08:15:32;3.30;;;3.00;;
10947;SDS011;5526;42.070;24.752;2023-01-13T08:18:00;3.45;;;3.15;;
10947;SDS011;5526;42.070;24.752;2023-01-13T08:20:27;4.38;;;3.33;;
10947;SDS011;5526;42.070;24.752;2023-01-13T08:22:55;2.70;;;2.50;;
10947;SDS011;5526;42.070;24.752;2023-01-13T08:25:23;3.53;;;2.72;;
10947;SDS011;5526;42.070;24.752;2023-01-13T08:27:52;3.10;;;2.80;;
10947;SDS011;5526;42.070;24.752;2023-01-13T08:30:20;4.75;;;2.90;;
10947;SDS011;5526;42.070;24.752;2023-01-13T08:32:47;5.65;;;3.63;;
10947;SDS011;5526;42.070;24.752;2023-01-13T08:35:15;5.95;;;3.97;;
10947;SDS011;5526;42.070;24.752;2023-01-13T08:37:44;4.70;;;4.18;;
10947;SDS011;5526;42.070;24.752;2023-01-13T08:40:13;5.30;;;4.80;;
10947;SDS011;5526;42.070;24.752;2023-01-13T08:42:41;4.68;;;3.65;;
10947;SDS011;5526;42.070;24.752;2023-01-13T08:45:10;5.03;;;3.80;;
10947;SDS011;5526;42.070;24.752;2023-01-13T08:47:39;4.28;;;3.88;;
10947;SDS011;5526;42.070;24.752;2023-01-13T08:50:07;7.45;;;6.22;;
10947;SDS011;5526;42.070;24.752;2023-01-13T08:52:35;9.38;;;6.90;;
10947;SDS011;5526;42.070;24.752;2023-01-13T08:55:03;7.13;;;5.90;;
10947;SDS011;5526;42.070;24.752;2023-01-13T08:57:31;6.85;;;6.15;;
10947;SDS011;5526;42.070;24.752;2023-01-13T08:59:58;7.07;;;6.05;;
10947;SDS011;5526;42.070;24.752;2023-01-13T09:02:27;7.45;;;6.75;;
10947;SDS011;5526;42.070;24.752;2023-01-13T09:04:54;7.20;;;6.47;;
10947;SDS011;5526;42.070;24.752;2023-01-13T09:07:21;11.40;;;7.00;;
10947;SDS011;5526;42.070;24.752;2023-01-13T09:09:48;7.78;;;6.70;;
10947;SDS011;5526;42.070;24.752;2023-01-13T09:12:16;7.03;;;5.82;;
10947;SDS011;5526;42.070;24.752;2023-01-13T09:15:01;7.53;;;6.43;;
10947;SDS011;5526;42.070;24.752;2023-01-13T09:17:29;11.55;;;7.10;;
10947;SDS011;5526;42.070;24.752;2023-01-13T09:19:57;9.73;;;8.07;;
10947;SDS011;5526;42.070;24.752;2023-01-13T09:22:24;13.40;;;8.70;;
10947;SDS011;5526;42.070;24.752;2023-01-13T09:24:52;8.23;;;7.10;;
10947;SDS011;5526;42.070;24.752;2023-01-13T09:27:20;9.98;;;8.32;;
10947;SDS011;5526;42.070;24.752;2023-01-13T09:29:48;10.23;;;7.82;;
10947;SDS011;5526;42.070;24.752;2023-01-13T09:32:15;8.73;;;7.18;;
10947;SDS011;5526;42.070;24.752;2023-01-13T09:34:44;8.52;;;6.75;;
10947;SDS011;5526;42.070;24.752;2023-01-13T09:37:25;8.48;;;7.57;;
10947;SDS011;5526;42.070;24.752;2023-01-13T09:39:53;8.48;;;7.57;;
10947;SDS011;5526;42.070;24.752;2023-01-13T09:42:22;10.75;;;7.70;;
10947;SDS011;5526;42.070;24.752;2023-01-13T09:45:14;8.90;;;7.32;;
10947;SDS011;5526;42.070;24.752;2023-01-13T09:47:47;10.30;;;7.95;;
10947;SDS011;5526;42.070;24.752;2023-01-13T09:50:26;8.25;;;7.45;;
10947;SDS011;5526;42.070;24.752;2023-01-13T09:53:12;9.77;;;7.85;;
10947;SDS011;5526;42.070;24.752;2023-01-13T09:55:45;8.73;;;7.47;;
10947;SDS011;5526;42.070;24.752;2023-01-13T09:58:13;8.40;;;7.38;;
10947;SDS011;5526;42.070;24.752;2023-01-13T10:00:43;8.55;;;6.85;;
10947;SDS011;5526;42.070;24.752;2023-01-13T10:03:17;8.07;;;6.95;;
10947;SDS011;5526;42.070;24.752;2023-01-13T10:05:49;6.93;;;6.22;;
10947;SDS011;5526;42.070;24.752;2023-01-13T10:08:25;13.30;;;9.00;;
10947;SDS011;5526;42.070;24.752;2023-01-13T10:10:54;7.57;;;6.80;;
10947;SDS011;5526;42.070;24.752;2023-01-13T10:13:24;11.13;;;7.97;;
10947;SDS011;5526;42.070;24.752;2023-01-13T10:15:58;8.88;;;7.20;;
10947;SDS011;5526;42.070;24.752;2023-01-13T10:18:36;7.15;;;6.45;;
10947;SDS011;5526;42.070;24.752;2023-01-13T10:21:17;10.02;;;8.02;;
10947;SDS011;5526;42.070;24.752;2023-01-13T10:23:59;6.93;;;5.90;;
10947;SDS011;5526;42.070;24.752;2023-01-13T10:26:33;7.88;;;5.78;;
10947;SDS011;5526;42.070;24.752;2023-01-13T10:29:17;5.32;;;4.72;;
10947;SDS011;5526;42.070;24.752;2023-01-13T10:31:49;4.70;;;4.30;;
10947;SDS011;5526;42.070;24.752;2023-01-13T10:34:17;6.13;;;4.97;;
10947;SDS011;5526;42.070;24.752;2023-01-13T10:39:38;6.30;;;4.95;;
10947;SDS011;5526;42.070;24.752;2023-01-13T10:42:10;6.40;;;5.45;;
10947;SDS011;5526;42.070;24.752;2023-01-13T10:44:45;7.22;;;4.53;;
10947;SDS011;5526;42.070;24.752;2023-01-13T10:47:18;8.52;;;4.65;;
10947;SDS011;5526;42.070;24.752;2023-01-13T10:50:02;5.40;;;4.30;;
10947;SDS011;5526;42.070;24.752;2023-01-13T10:55:29;6.47;;;5.05;;
10947;SDS011;5526;42.070;24.752;2023-01-13T10:58:10;5.55;;;5.05;;
10947;SDS011;5526;42.070;24.752;2023-01-13T11:00:38;9.32;;;5.65;;
10947;SDS011;5526;42.070;24.752;2023-01-13T11:03:16;6.72;;;4.82;;
10947;SDS011;5526;42.070;24.752;2023-01-13T11:05:49;5.72;;;4.57;;
10947;SDS011;5526;42.070;24.752;2023-01-13T11:08:20;5.85;;;4.95;;
10947;SDS011;5526;42.070;24.752;2023-01-13T11:10:50;6.00;;;5.40;;
10947;SDS011;5526;42.070;24.752;2023-01-13T11:13:20;6.05;;;5.47;;
10947;SDS011;5526;42.070;24.752;2023-01-13T11:15:59;8.93;;;5.00;;
10947;SDS011;5526;42.070;24.752;2023-01-13T11:18:35;5.82;;;5.25;;
10947;SDS011;5526;42.070;24.752;2023-01-13T11:21:08;6.00;;;5.50;;
10947;SDS011;5526;42.070;24.752;2023-01-13T11:23:52;5.85;;;5.35;;
10947;SDS011;5526;42.070;24.752;2023-01-13T11:26:28;8.25;;;6.65;;
10947;SDS011;5526;42.070;24.752;2023-01-13T11:29:08;6.40;;;5.90;;
10947;SDS011;5526;42.070;24.752;2023-01-13T11:31:41;6.70;;;5.55;;
10947;SDS011;5526;42.070;24.752;2023-01-13T11:34:15;6.43;;;5.82;;
10947;SDS011;5526;42.070;24.752;2023-01-13T11:36:53;6.78;;;5.55;;
10947;SDS011;5526;42.070;24.752;2023-01-13T11:39:26;6.97;;;6.13;;
10947;SDS011;5526;42.070;24.752;2023-01-13T11:42:11;8.10;;;6.90;;
10947;SDS011;5526;42.070;24.752;2023-01-13T11:44:48;7.70;;;6.90;;
10947;SDS011;5526;42.070;24.752;2023-01-13T11:47:24;9.43;;;7.43;;
10947;SDS011;5526;42.070;24.752;2023-01-13T11:49:53;7.40;;;6.63;;
10947;SDS011;5526;42.070;24.752;2023-01-13T11:52:22;6.40;;;5.85;;
10947;SDS011;5526;42.070;24.752;2023-01-13T11:55:12;7.47;;;6.75;;
10947;SDS011;5526;42.070;24.752;2023-01-13T11:57:54;11.38;;;7.82;;
10947;SDS011;5526;42.070;24.752;2023-01-13T12:00:50;9.27;;;7.72;;
10947;SDS011;5526;42.070;24.752;2023-01-13T12:03:34;10.23;;;7.90;;
10947;SDS011;5526;42.070;24.752;2023-01-13T12:06:17;8.63;;;6.85;;
10947;SDS011;5526;42.070;24.752;2023-01-13T12:11:50;9.07;;;8.13;;
10947;SDS011;5526;42.070;24.752;2023-01-13T12:14:44;9.40;;;7.90;;
10947;SDS011;5526;42.070;24.752;2023-01-13T12:17:28;12.88;;;10.25;;
10947;SDS011;5526;42.070;24.752;2023-01-13T12:20:00;12.95;;;10.40;;
10947;SDS011;5526;42.070;24.752;2023-01-13T12:22:43;12.30;;;11.00;;
10947;SDS011;5526;42.070;24.752;2023-01-13T12:25:12;10.65;;;9.00;;
10947;SDS011;5526;42.070;24.752;2023-01-13T12:27:48;10.57;;;8.43;;
10947;SDS011;5526;42.070;24.752;2023-01-13T12:30:24;9.27;;;8.38;;
10947;SDS011;5526;42.070;24.752;2023-01-13T12:32:56;9.60;;;8.60;;
10947;SDS011;5526;42.070;24.752;2023-01-13T12:35:33;10.30;;;7.47;;
10947;SDS011;5526;42.070;24.752;2023-01-13T12:38:06;8.82;;;7.93;;
10947;SDS011;5526;42.070;24.752;2023-01-13T12:40:42;11.10;;;8.25;;
10947;SDS011;5526;42.070;24.752;2023-01-13T12:43:21;8.68;;;7.78;;
10947;SDS011;5526;42.070;24.752;2023-01-13T12:49:24;8.45;;;7.53;;
10947;SDS011;5526;42.070;24.752;2023-01-13T12:58:01;8.98;;;8.07;;
10947;SDS011;5526;42.070;24.752;2023-01-13T13:00:54;10.00;;;8.75;;
10947;SDS011;5526;42.070;24.752;2023-01-13T13:03:31;8.20;;;7.40;;
10947;SDS011;5526;42.070;24.752;2023-01-13T13:06:05;9.43;;;8.43;;
10947;SDS011;5526;42.070;24.752;2023-01-13T13:08:40;9.25;;;8.35;;
10947;SDS011;5526;42.070;24.752;2023-01-13T13:11:18;17.40;;;9.23;;
10947;SDS011;5526;42.070;24.752;2023-01-13T13:14:05;10.15;;;8.38;;
10947;SDS011;5526;42.070;24.752;2023-01-13T13:16:45;9.13;;;8.27;;
10947;SDS011;5526;42.070;24.752;2023-01-13T13:22:15;9.48;;;8.40;;
10947;SDS011;5526;42.070;24.752;2023-01-13T13:28:00;12.25;;;10.35;;
10947;SDS011;5526;42.070;24.752;2023-01-13T13:30:39;12.13;;;10.90;;
10947;SDS011;5526;42.070;24.752;2023-01-13T13:33:17;14.40;;;12.07;;
10947;SDS011;5526;42.070;24.752;2023-01-13T13:36:01;16.33;;;13.13;;
10947;SDS011;5526;42.070;24.752;2023-01-13T13:38:47;13.98;;;11.45;;
10947;SDS011;5526;42.070;24.752;2023-01-13T13:41:41;11.18;;;9.50;;
10947;SDS011;5526;42.070;24.752;2023-01-13T13:44:28;13.75;;;9.55;;
10947;SDS011;5526;42.070;24.752;2023-01-13T13:47:15;10.95;;;9.82;;
10947;SDS011;5526;42.070;24.752;2023-01-13T13:49:45;14.55;;;11.85;;
10947;SDS011;5526;42.070;24.752;2023-01-13T13:52:18;13.05;;;10.85;;
10947;SDS011;5526;42.070;24.752;2023-01-13T13:54:50;10.52;;;9.00;;
10947;SDS011;5526;42.070;24.752;2023-01-13T13:57:22;10.55;;;8.70;;
10947;SDS011;5526;42.070;24.752;2023-01-13T13:59:56;10.85;;;8.55;;
10947;SDS011;5526;42.070;24.752;2023-01-13T14:02:26;10.00;;;8.25;;
10947;SDS011;5526;42.070;24.752;2023-01-13T14:05:16;11.45;;;8.30;;
10947;SDS011;5526;42.070;24.752;2023-01-13T14:07:46;9.55;;;8.65;;
10947;SDS011;5526;42.070;24.752;2023-01-13T14:10:17;10.30;;;7.93;;
10947;SDS011;5526;42.070;24.752;2023-01-13T14:12:46;9.52;;;8.60;;
10947;SDS011;5526;42.070;24.752;2023-01-13T14:15:25;14.93;;;11.68;;
10947;SDS011;5526;42.070;24.752;2023-01-13T14:17:57;14.02;;;11.73;;
10947;SDS011;5526;42.070;24.752;2023-01-13T14:20:26;13.10;;;11.75;;
10947;SDS011;5526;42.070;24.752;2023-01-13T14:22:54;12.73;;;9.50;;
10947;SDS011;5526;42.070;24.752;2023-01-13T14:25:29;10.45;;;9.00;;
10947;SDS011;5526;42.070;24.752;2023-01-13T14:27:59;11.73;;;9.88;;
10947;SDS011;5526;42.070;24.752;2023-01-13T14:30:34;12.48;;;10.27;;
10947;SDS011;5526;42.070;24.752;2023-01-13T14:33:01;11.20;;;9.45;;
10947;SDS011;5526;42.070;24.752;2023-01-13T14:35:30;14.80;;;10.55;;
10947;SDS011;5526;42.070;24.752;2023-01-13T14:38:01;13.98;;;10.30;;
10947;SDS011;5526;42.070;24.752;2023-01-13T14:40:38;76.32;;;49.47;;
10947;SDS011;5526;42.070;24.752;2023-01-13T14:43:11;41.53;;;32.50;;
10947;SDS011;5526;42.070;24.752;2023-01-13T14:45:43;33.42;;;20.65;;
10947;SDS011;5526;42.070;24.752;2023-01-13T14:48:20;14.38;;;11.05;;
10947;SDS011;5526;42.070;24.752;2023-01-13T14:50:56;10.88;;;9.77;;
10947;SDS011;5526;42.070;24.752;2023-01-13T14:53:26;10.98;;;9.55;;
10947;SDS011;5526;42.070;24.752;2023-01-13T14:55:56;10.27;;;9.25;;
10947;SDS011;5526;42.070;24.752;2023-01-13T14:58:25;13.45;;;11.55;;
10947;SDS011;5526;42.070;24.752;2023-01-13T15:03:53;17.10;;;13.90;;
10947;SDS011;5526;42.070;24.752;2023-01-13T15:06:22;15.80;;;13.63;;
10947;SDS011;5526;42.070;24.752;2023-01-13T15:08:51;17.98;;;14.68;;
10947;SDS011;5526;42.070;24.752;2023-01-13T15:11:20;17.25;;;14.05;;
10947;SDS011;5526;42.070;24.752;2023-01-13T15:13:53;16.98;;;14.07;;
10947;SDS011;5526;42.070;24.752;2023-01-13T15:16:24;17.85;;;15.30;;
10947;SDS011;5526;42.070;24.752;2023-01-13T15:18:54;18.52;;;15.05;;
10947;SDS011;5526;42.070;24.752;2023-01-13T15:21:23;18.85;;;14.73;;
10947;SDS011;5526;42.070;24.752;2023-01-13T15:23:50;19.20;;;14.85;;
10947;SDS011;5526;42.070;24.752;2023-01-13T15:26:19;22.55;;;17.05;;
10947;SDS011;5526;42.070;24.752;2023-01-13T15:28:48;23.60;;;16.98;;
10947;SDS011;5526;42.070;24.752;2023-01-13T15:31:17;22.65;;;17.63;;
10947;SDS011;5526;42.070;24.752;2023-01-13T15:33:45;24.88;;;18.63;;
10947;SDS011;5526;42.070;24.752;2023-01-13T15:36:16;26.45;;;18.05;;
10947;SDS011;5526;42.070;24.752;2023-01-13T15:38:48;26.63;;;19.15;;
10947;SDS011;5526;42.070;24.752;2023-01-13T15:41:16;23.00;;;17.83;;
10947;SDS011;5526;42.070;24.752;2023-01-13T15:44:04;22.30;;;19.00;;
10947;SDS011;5526;42.070;24.752;2023-01-13T15:46:49;25.38;;;19.27;;